createdAt,value
2023-02-05T00:08:42.305Z,22.20
2023-02-05T00:18:45.957Z,18.93
2023-02-05T00:28:48.902Z,24.00
2023-02-05T00:38:52.207Z,25.40
2023-02-05T00:48:56.215Z,20.60
2023-02-05T00:59:00.486Z,21.47
2023-02-05T01:09:03.674Z,22.97
2023-02-05T01:19:06.573Z,19.77
2023-02-05T01:29:09.527Z,24.10
2023-02-05T01:39:12.888Z,26.07
2023-02-05T01:49:31.355Z,23.90
2023-02-05T01:59:37.334Z,29.93
2023-02-05T02:09:45.049Z,21.53
2023-02-05T02:20:00.410Z,26.60
2023-02-05T02:30:10.579Z,26.80
2023-02-05T02:40:20.365Z,31.17
2023-02-05T02:50:36.172Z,26.93
2023-02-05T03:00:40.581Z,31.57
2023-02-05T03:11:09.779Z,28.73
2023-02-05T03:21:19.308Z,28.37
2023-02-05T03:31:58.755Z,23.63
2023-02-05T03:42:10.017Z,20.57
2023-02-05T03:52:18.616Z,29.57
2023-02-05T04:02:22.511Z,27.00
2023-02-05T04:12:25.581Z,28.60
2023-02-05T04:22:29.119Z,22.87
2023-02-05T04:32:32.038Z,24.67
2023-02-05T04:42:35.244Z,26.70
2023-02-05T04:52:38.377Z,34.73
2023-02-05T05:02:41.276Z,32.77
2023-02-05T05:12:44.019Z,39.40
2023-02-05T05:22:47.171Z,32.77
2023-02-05T05:32:49.995Z,34.50
2023-02-05T05:43:13.768Z,34.97
2023-02-05T05:53:16.598Z,36.23
2023-02-05T06:03:19.242Z,37.87
2023-02-05T06:13:22.239Z,35.87
2023-02-05T06:23:24.947Z,41.97
2023-02-05T06:33:28.231Z,50.73
2023-02-05T06:43:31.215Z,51.87
2023-02-05T06:53:34.231Z,51.27
2023-02-05T07:03:37.146Z,56.03
2023-02-05T07:13:39.804Z,60.60
2023-02-05T07:23:42.634Z,62.20
2023-02-05T07:33:46.677Z,64.17
2023-02-05T07:43:53.639Z,57.93
2023-02-05T07:53:56.685Z,48.93
2023-02-05T08:03:59.818Z,44.40
2023-02-05T08:14:03.307Z,30.00
2023-02-05T08:24:06.619Z,26.17
2023-02-05T08:34:10.471Z,18.53
2023-02-05T08:44:13.566Z,19.57
2023-02-05T08:54:16.757Z,18.43
2023-02-05T09:04:22.156Z,11.43
2023-02-05T09:14:25.208Z,8.30
2023-02-05T09:24:28.368Z,3.63
2023-02-05T09:34:32.896Z,3.73
2023-02-05T09:44:42.059Z,6.50
2023-02-05T09:54:48.781Z,3.83
2023-02-05T10:04:55.093Z,0.70
2023-02-05T10:15:10.173Z,1.93
2023-02-05T10:25:32.093Z,1.87
2023-02-05T10:35:59.921Z,2.30
2023-02-05T10:46:02.936Z,0.57
2023-02-05T10:56:06.900Z,1.53
2023-02-05T11:06:11.804Z,0.87
2023-02-05T11:16:15.782Z,0.73
2023-02-05T11:26:21.352Z,1.17
2023-02-05T11:36:25.471Z,1.87
2023-02-05T11:46:42.564Z,1.87
2023-02-05T11:57:17.786Z,2.43
2023-02-05T12:07:22.294Z,4.30
2023-02-05T12:17:41.988Z,4.93
2023-02-05T12:28:22.462Z,5.20
2023-02-05T12:38:43.527Z,6.37
2023-02-05T12:49:12.032Z,6.63
2023-02-05T12:59:28.065Z,3.90
2023-02-05T13:10:02.323Z,5.63
2023-02-05T13:20:08.445Z,2.83
2023-02-05T13:30:21.974Z,2.30
2023-02-05T13:40:30.422Z,2.63
2023-02-05T13:50:42.643Z,4.00
2023-02-05T14:00:49.544Z,6.27
2023-02-05T14:11:04.275Z,18.23
2023-02-05T14:21:31.702Z,5.90
2023-02-05T14:31:48.916Z,6.83
2023-02-05T14:41:59.425Z,7.50
2023-02-05T14:52:17.055Z,8.60
2023-02-05T15:02:58.851Z,10.33
2023-02-05T15:13:29.483Z,7.97
2023-02-05T15:23:36.381Z,10.30
2023-02-05T15:34:03.578Z,8.10
2023-02-05T15:44:20.339Z,11.63
2023-02-05T15:54:27.550Z,7.93
2023-02-05T16:04:35.562Z,9.93
2023-02-05T16:14:38.027Z,10.87
2023-02-05T16:24:43.034Z,10.20
2023-02-05T16:34:45.953Z,10.33
2023-02-05T16:44:50.004Z,10.23
2023-02-05T16:54:53.159Z,11.17
2023-02-05T17:04:58.063Z,15.00
2023-02-05T17:15:23.651Z,15.90
2023-02-05T17:25:37.703Z,14.13
2023-02-05T17:35:40.662Z,12.70
2023-02-05T17:45:45.940Z,13.20
2023-02-05T17:55:49.138Z,10.77
2023-02-05T18:05:52.938Z,16.33
2023-02-05T18:16:01.708Z,14.87
2023-02-05T18:26:06.603Z,15.87
2023-02-05T18:36:12.536Z,16.40
2023-02-05T18:46:21.277Z,13.93
2023-02-05T18:56:25.937Z,10.67
2023-02-05T19:06:28.339Z,15.33
2023-02-05T19:16:32.526Z,12.80
2023-02-05T19:26:36.746Z,14.60
2023-02-05T19:36:39.289Z,16.13
2023-02-05T19:46:44.308Z,12.93
2023-02-05T19:56:46.972Z,13.00
2023-02-05T20:06:49.582Z,12.30
2023-02-05T20:16:53.049Z,11.00
2023-02-05T20:26:56.796Z,11.07
2023-02-05T20:37:04.387Z,11.97
2023-02-05T20:47:08.503Z,14.07
2023-02-05T20:57:10.668Z,14.67
2023-02-05T21:07:13.128Z,14.97
2023-02-05T21:17:15.533Z,10.97
2023-02-05T21:27:17.620Z,10.60
2023-02-05T21:37:19.750Z,15.23
2023-02-05T21:47:22.141Z,14.37
2023-02-05T21:57:24.907Z,18.37
2023-02-05T22:07:27.025Z,13.90
2023-02-05T22:17:29.348Z,19.90
2023-02-05T22:27:31.978Z,16.60
2023-02-05T22:37:34.056Z,17.00
2023-02-05T22:47:36.492Z,12.37
2023-02-05T22:57:39.801Z,15.30
2023-02-05T23:07:42.072Z,14.10
2023-02-05T23:17:44.700Z,18.53
2023-02-05T23:27:47.135Z,16.27
2023-02-05T23:37:49.588Z,19.83
2023-02-05T23:47:51.773Z,15.17
2023-02-05T23:57:54.163Z,21.30
